sensor_id;sensor_type;location;lat;lon;timestamp;pressure;altitude;pressure_sealevel;temperature
70969;BMP280;58630;43.022;25.100;2024-01-15T00:02:08;;;;3.20
70969;BMP280;58630;43.022;25.100;2024-01-15T00:04:40;;;;3.20
70969;BMP280;58630;43.022;25.100;2024-01-15T00:07:06;;;;3.20
70969;BMP280;58630;43.022;25.100;2024-01-15T00:09:32;;;;3.10
70969;BMP280;58630;43.022;25.100;2024-01-15T00:11:58;;;;3.10
70969;BMP280;58630;43.022;25.100;2024-01-15T00:14:24;;;;3.10
70969;BMP280;58630;43.022;25.100;2024-01-15T00:16:49;;;;3.10
70969;BMP280;58630;43.022;25.100;2024-01-15T00:19:16;;;;3.10
70969;BMP280;58630;43.022;25.100;2024-01-15T00:21:42;;;;3.10
70969;BMP280;58630;43.022;25.100;2024-01-15T00:24:08;;;;3.10
70969;BMP280;58630;43.022;25.100;2024-01-15T00:26:33;;;;3.10
70969;BMP280;58630;43.022;25.100;2024-01-15T00:28:59;;;;3.10
70969;BMP280;58630;43.022;25.100;2024-01-15T00:31:25;;;;3.00
70969;BMP280;58630;43.022;25.100;2024-01-15T00:33:50;;;;3.00
70969;BMP280;58630;43.022;25.100;2024-01-15T00:36:16;;;;3.00
70969;BMP280;58630;43.022;25.100;2024-01-15T00:38:42;;;;3.00
70969;BMP280;58630;43.022;25.100;2024-01-15T00:41:07;;;;3.00
70969;BMP280;58630;43.022;25.100;2024-01-15T00:43:33;;;;3.00
70969;BMP280;58630;43.022;25.100;2024-01-15T00:46:01;;;;3.00
70969;BMP280;58630;43.022;25.100;2024-01-15T00:48:26;;;;3.00
70969;BMP280;58630;43.022;25.100;2024-01-15T00:50:52;;;;2.90
70969;BMP280;58630;43.022;25.100;2024-01-15T00:53:19;;;;2.90
70969;BMP280;58630;43.022;25.100;2024-01-15T00:55:47;;;;2.90
70969;BMP280;58630;43.022;25.100;2024-01-15T00:58:13;;;;2.90
70969;BMP280;58630;43.022;25.100;2024-01-15T01:00:38;;;;2.90
70969;BMP280;58630;43.022;25.100;2024-01-15T01:03:04;;;;2.90
70969;BMP280;58630;43.022;25.100;2024-01-15T01:05:29;;;;2.90
70969;BMP280;58630;43.022;25.100;2024-01-15T01:07:55;;;;2.90
70969;BMP280;58630;43.022;25.100;2024-01-15T01:10:20;;;;2.80
70969;BMP280;58630;43.022;25.100;2024-01-15T01:12:46;;;;2.80
70969;BMP280;58630;43.022;25.100;2024-01-15T01:15:11;;;;2.80
70969;BMP280;58630;43.022;25.100;2024-01-15T01:17:37;;;;2.80
70969;BMP280;58630;43.022;25.100;2024-01-15T01:20:03;;;;2.80
70969;BMP280;58630;43.022;25.100;2024-01-15T01:22:31;;;;2.80
70969;BMP280;58630;43.022;25.100;2024-01-15T01:24:57;;;;2.80
70969;BMP280;58630;43.022;25.100;2024-01-15T01:27:22;;;;2.70
70969;BMP280;58630;43.022;25.100;2024-01-15T01:29:48;;;;2.70
70969;BMP280;58630;43.022;25.100;2024-01-15T01:32:13;;;;2.70
70969;BMP280;58630;43.022;25.100;2024-01-15T01:34:41;;;;2.70
70969;BMP280;58630;43.022;25.100;2024-01-15T01:37:10;;;;2.70
70969;BMP280;58630;43.022;25.100;2024-01-15T01:39:38;;;;2.70
70969;BMP280;58630;43.022;25.100;2024-01-15T01:42:04;;;;2.70
70969;BMP280;58630;43.022;25.100;2024-01-15T01:44:30;;;;2.70
70969;BMP280;58630;43.022;25.100;2024-01-15T01:46:55;;;;2.70
70969;BMP280;58630;43.022;25.100;2024-01-15T01:49:22;;;;2.60
70969;BMP280;58630;43.022;25.100;2024-01-15T01:51:47;;;;2.60
70969;BMP280;58630;43.022;25.100;2024-01-15T01:54:13;;;;2.60
70969;BMP280;58630;43.022;25.100;2024-01-15T01:56:39;;;;2.60
70969;BMP280;58630;43.022;25.100;2024-01-15T01:59:05;;;;2.60
70969;BMP280;58630;43.022;25.100;2024-01-15T02:01:32;;;;2.60
70969;BMP280;58630;43.022;25.100;2024-01-15T02:03:57;;;;2.60
70969;BMP280;58630;43.022;25.100;2024-01-15T02:06:23;;;;2.50
70969;BMP280;58630;43.022;25.100;2024-01-15T02:08:49;;;;2.50
70969;BMP280;58630;43.022;25.100;2024-01-15T02:11:15;;;;2.50
70969;BMP280;58630;43.022;25.100;2024-01-15T02:13:41;;;;2.50
70969;BMP280;58630;43.022;25.100;2024-01-15T02:16:07;;;;2.50
70969;BMP280;58630;43.022;25.100;2024-01-15T02:18:41;;;;2.50
70969;BMP280;58630;43.022;25.100;2024-01-15T02:21:07;;;;2.50
70969;BMP280;58630;43.022;25.100;2024-01-15T02:23:33;;;;2.50
70969;BMP280;58630;43.022;25.100;2024-01-15T02:25:59;;;;2.40
70969;BMP280;58630;43.022;25.100;2024-01-15T02:28:24;;;;2.40
70969;BMP280;58630;43.022;25.100;2024-01-15T02:30:50;;;;2.40
70969;BMP280;58630;43.022;25.100;2024-01-15T02:33:15;;;;2.40
70969;BMP280;58630;43.022;25.100;2024-01-15T02:35:41;;;;2.40
70969;BMP280;58630;43.022;25.100;2024-01-15T02:38:06;;;;2.40
70969;BMP280;58630;43.022;25.100;2024-01-15T02:40:32;;;;2.40
70969;BMP280;58630;43.022;25.100;2024-01-15T02:42:58;;;;2.40
70969;BMP280;58630;43.022;25.100;2024-01-15T02:45:23;;;;2.40
70969;BMP280;58630;43.022;25.100;2024-01-15T02:47:49;;;;2.40
70969;BMP280;58630;43.022;25.100;2024-01-15T02:50:15;;;;2.40
70969;BMP280;58630;43.022;25.100;2024-01-15T02:53:00;;;;2.30
70969;BMP280;58630;43.022;25.100;2024-01-15T02:55:27;;;;2.30
70969;BMP280;58630;43.022;25.100;2024-01-15T02:57:54;;;;2.30
70969;BMP280;58630;43.022;25.100;2024-01-15T03:00:20;;;;2.30
70969;BMP280;58630;43.022;25.100;2024-01-15T03:02:47;;;;2.30
70969;BMP280;58630;43.022;25.100;2024-01-15T03:05:15;;;;2.30
70969;BMP280;58630;43.022;25.100;2024-01-15T03:07:41;;;;2.30
70969;BMP280;58630;43.022;25.100;2024-01-15T03:10:06;;;;2.30
70969;BMP280;58630;43.022;25.100;2024-01-15T03:12:32;;;;2.30
70969;BMP280;58630;43.022;25.100;2024-01-15T03:14:58;;;;2.30
70969;BMP280;58630;43.022;25.100;2024-01-15T03:17:23;;;;2.20
70969;BMP280;58630;43.022;25.100;2024-01-15T03:19:49;;;;2.20
70969;BMP280;58630;43.022;25.100;2024-01-15T03:22:15;;;;2.20
70969;BMP280;58630;43.022;25.100;2024-01-15T03:24:40;;;;2.20
70969;BMP280;58630;43.022;25.100;2024-01-15T03:27:06;;;;2.20
70969;BMP280;58630;43.022;25.100;2024-01-15T03:29:31;;;;2.20
70969;BMP280;58630;43.022;25.100;2024-01-15T03:31:57;;;;2.20
70969;BMP280;58630;43.022;25.100;2024-01-15T03:34:23;;;;2.20
70969;BMP280;58630;43.022;25.100;2024-01-15T03:36:48;;;;2.10
70969;BMP280;58630;43.022;25.100;2024-01-15T03:39:14;;;;2.10
70969;BMP280;58630;43.022;25.100;2024-01-15T03:41:39;;;;2.10
70969;BMP280;58630;43.022;25.100;2024-01-15T03:44:06;;;;2.10
70969;BMP280;58630;43.022;25.100;2024-01-15T03:46:32;;;;2.10
70969;BMP280;58630;43.022;25.100;2024-01-15T03:48:57;;;;2.10
70969;BMP280;58630;43.022;25.100;2024-01-15T03:51:23;;;;2.10
70969;BMP280;58630;43.022;25.100;2024-01-15T03:53:49;;;;2.10
70969;BMP280;58630;43.022;25.100;2024-01-15T03:56:14;;;;2.00
70969;BMP280;58630;43.022;25.100;2024-01-15T03:58:40;;;;2.00
70969;BMP280;58630;43.022;25.100;2024-01-15T04:01:09;;;;2.00
70969;BMP280;58630;43.022;25.100;2024-01-15T04:03:35;;;;2.00
70969;BMP280;58630;43.022;25.100;2024-01-15T04:06:00;;;;2.00
70969;BMP280;58630;43.022;25.100;2024-01-15T04:08:26;;;;2.00
70969;BMP280;58630;43.022;25.100;2024-01-15T04:10:51;;;;2.00
70969;BMP280;58630;43.022;25.100;2024-01-15T04:13:17;;;;2.00
70969;BMP280;58630;43.022;25.100;2024-01-15T04:15:42;;;;1.90
70969;BMP280;58630;43.022;25.100;2024-01-15T04:18:08;;;;2.00
70969;BMP280;58630;43.022;25.100;2024-01-15T04:20:33;;;;1.90
70969;BMP280;58630;43.022;25.100;2024-01-15T04:22:59;;;;1.90
70969;BMP280;58630;43.022;25.100;2024-01-15T04:25:24;;;;1.90
70969;BMP280;58630;43.022;25.100;2024-01-15T04:27:50;;;;1.90
70969;BMP280;58630;43.022;25.100;2024-01-15T04:30:15;;;;1.90
70969;BMP280;58630;43.022;25.100;2024-01-15T04:32:41;;;;1.90
70969;BMP280;58630;43.022;25.100;2024-01-15T04:35:07;;;;1.90
70969;BMP280;58630;43.022;25.100;2024-01-15T04:37:32;;;;1.90
70969;BMP280;58630;43.022;25.100;2024-01-15T04:39:58;;;;1.90
70969;BMP280;58630;43.022;25.100;2024-01-15T04:42:23;;;;1.90
70969;BMP280;58630;43.022;25.100;2024-01-15T04:44:49;;;;1.90
70969;BMP280;58630;43.022;25.100;2024-01-15T04:47:15;;;;1.80
70969;BMP280;58630;43.022;25.100;2024-01-15T04:49:40;;;;1.80
70969;BMP280;58630;43.022;25.100;2024-01-15T04:52:06;;;;1.80
70969;BMP280;58630;43.022;25.100;2024-01-15T04:54:31;;;;1.80
70969;BMP280;58630;43.022;25.100;2024-01-15T04:56:57;;;;1.80
70969;BMP280;58630;43.022;25.100;2024-01-15T04:59:23;;;;1.80
70969;BMP280;58630;43.022;25.100;2024-01-15T05:01:48;;;;1.80
70969;BMP280;58630;43.022;25.100;2024-01-15T05:04:14;;;;1.80
70969;BMP280;58630;43.022;25.100;2024-01-15T05:06:39;;;;1.80
70969;BMP280;58630;43.022;25.100;2024-01-15T05:09:05;;;;1.80
70969;BMP280;58630;43.022;25.100;2024-01-15T05:11:31;;;;1.80
70969;BMP280;58630;43.022;25.100;2024-01-15T05:13:56;;;;1.80
70969;BMP280;58630;43.022;25.100;2024-01-15T05:16:22;;;;1.70
70969;BMP280;58630;43.022;25.100;2024-01-15T05:18:47;;;;1.70
70969;BMP280;58630;43.022;25.100;2024-01-15T05:21:13;;;;1.70
70969;BMP280;58630;43.022;25.100;2024-01-15T05:23:38;;;;1.70
70969;BMP280;58630;43.022;25.100;2024-01-15T05:26:04;;;;1.70
70969;BMP280;58630;43.022;25.100;2024-01-15T05:28:29;;;;1.70
70969;BMP280;58630;43.022;25.100;2024-01-15T05:30:55;;;;1.70
70969;BMP280;58630;43.022;25.100;2024-01-15T05:33:23;;;;1.70
70969;BMP280;58630;43.022;25.100;2024-01-15T05:35:49;;;;1.70
70969;BMP280;58630;43.022;25.100;2024-01-15T05:38:16;;;;1.70
70969;BMP280;58630;43.022;25.100;2024-01-15T05:40:41;;;;1.60
70969;BMP280;58630;43.022;25.100;2024-01-15T05:43:07;;;;1.60
70969;BMP280;58630;43.022;25.100;2024-01-15T05:45:33;;;;1.60
70969;BMP280;58630;43.022;25.100;2024-01-15T05:47:59;;;;1.60
70969;BMP280;58630;43.022;25.100;2024-01-15T05:50:24;;;;1.60
70969;BMP280;58630;43.022;25.100;2024-01-15T05:54:45;;;;1.60
70969;BMP280;58630;43.022;25.100;2024-01-15T05:57:10;;;;1.70
70969;BMP280;58630;43.022;25.100;2024-01-15T05:59:36;;;;2.00
70969;BMP280;58630;43.022;25.100;2024-01-15T06:02:01;;;;2.30
70969;BMP280;58630;43.022;25.100;2024-01-15T06:04:27;;;;2.60
70969;BMP280;58630;43.022;25.100;2024-01-15T06:06:52;;;;2.80
70969;BMP280;58630;43.022;25.100;2024-01-15T06:09:18;;;;3.00
70969;BMP280;58630;43.022;25.100;2024-01-15T06:11:43;;;;3.10
70969;BMP280;58630;43.022;25.100;2024-01-15T06:14:09;;;;3.20
70969;BMP280;58630;43.022;25.100;2024-01-15T06:16:34;;;;3.30
70969;BMP280;58630;43.022;25.100;2024-01-15T06:19:00;;;;3.40
70969;BMP280;58630;43.022;25.100;2024-01-15T06:21:26;;;;3.50
70969;BMP280;58630;43.022;25.100;2024-01-15T06:23:51;;;;3.60
70969;BMP280;58630;43.022;25.100;2024-01-15T06:26:17;;;;3.60
70969;BMP280;58630;43.022;25.100;2024-01-15T06:28:42;;;;3.70
70969;BMP280;58630;43.022;25.100;2024-01-15T06:31:08;;;;3.70
70969;BMP280;58630;43.022;25.100;2024-01-15T06:33:33;;;;3.80
70969;BMP280;58630;43.022;25.100;2024-01-15T06:35:59;;;;3.90
70969;BMP280;58630;43.022;25.100;2024-01-15T06:38:24;;;;3.90
70969;BMP280;58630;43.022;25.100;2024-01-15T06:40:50;;;;4.00
70969;BMP280;58630;43.022;25.100;2024-01-15T06:43:17;;;;4.10
70969;BMP280;58630;43.022;25.100;2024-01-15T06:45:43;;;;4.10
70969;BMP280;58630;43.022;25.100;2024-01-15T06:48:08;;;;4.20
70969;BMP280;58630;43.022;25.100;2024-01-15T06:50:34;;;;4.20
70969;BMP280;58630;43.022;25.100;2024-01-15T06:53:00;;;;4.30
70969;BMP280;58630;43.022;25.100;2024-01-15T06:55:25;;;;4.40
70969;BMP280;58630;43.022;25.100;2024-01-15T06:57:51;;;;4.50
70969;BMP280;58630;43.022;25.100;2024-01-15T07:00:17;;;;4.60
70969;BMP280;58630;43.022;25.100;2024-01-15T07:02:45;;;;4.70
70969;BMP280;58630;43.022;25.100;2024-01-15T07:05:10;;;;4.70
70969;BMP280;58630;43.022;25.100;2024-01-15T07:07:36;;;;4.80
70969;BMP280;58630;43.022;25.100;2024-01-15T07:10:02;;;;4.90
70969;BMP280;58630;43.022;25.100;2024-01-15T07:12:29;;;;5.00
70969;BMP280;58630;43.022;25.100;2024-01-15T07:14:55;;;;5.10
70969;BMP280;58630;43.022;25.100;2024-01-15T07:17:21;;;;5.00
70969;BMP280;58630;43.022;25.100;2024-01-15T07:22:33;;;;5.10
70969;BMP280;58630;43.022;25.100;2024-01-15T07:24:59;;;;4.70
70969;BMP280;58630;43.022;25.100;2024-01-15T07:27:24;;;;4.40
70969;BMP280;58630;43.022;25.100;2024-01-15T07:29:50;;;;4.20
70969;BMP280;58630;43.022;25.100;2024-01-15T07:32:15;;;;4.00
70969;BMP280;58630;43.022;25.100;2024-01-15T07:34:41;;;;3.90
70969;BMP280;58630;43.022;25.100;2024-01-15T07:37:07;;;;3.70
70969;BMP280;58630;43.022;25.100;2024-01-15T07:39:32;;;;3.70
70969;BMP280;58630;43.022;25.100;2024-01-15T07:41:58;;;;3.60
70969;BMP280;58630;43.022;25.100;2024-01-15T07:44:23;;;;3.50
70969;BMP280;58630;43.022;25.100;2024-01-15T07:46:49;;;;3.50
70969;BMP280;58630;43.022;25.100;2024-01-15T07:49:16;;;;3.40
70969;BMP280;58630;43.022;25.100;2024-01-15T07:51:42;;;;3.30
70969;BMP280;58630;43.022;25.100;2024-01-15T07:54:09;;;;3.30
70969;BMP280;58630;43.022;25.100;2024-01-15T07:56:41;;;;3.30
70969;BMP280;58630;43.022;25.100;2024-01-15T07:59:18;;;;3.30
70969;BMP280;58630;43.022;25.100;2024-01-15T08:01:43;;;;3.20
70969;BMP280;58630;43.022;25.100;2024-01-15T08:04:09;;;;3.20
70969;BMP280;58630;43.022;25.100;2024-01-15T08:06:38;;;;3.20
70969;BMP280;58630;43.022;25.100;2024-01-15T08:09:03;;;;3.20
70969;BMP280;58630;43.022;25.100;2024-01-15T08:11:29;;;;3.20
70969;BMP280;58630;43.022;25.100;2024-01-15T08:13:55;;;;3.20
70969;BMP280;58630;43.022;25.100;2024-01-15T08:16:21;;;;3.20
70969;BMP280;58630;43.022;25.100;2024-01-15T08:18:47;;;;3.20
70969;BMP280;58630;43.022;25.100;2024-01-15T08:21:13;;;;3.20
70969;BMP280;58630;43.022;25.100;2024-01-15T08:23:39;;;;3.20
70969;BMP280;58630;43.022;25.100;2024-01-15T08:26:04;;;;3.20
70969;BMP280;58630;43.022;25.100;2024-01-15T08:28:30;;;;3.20
70969;BMP280;58630;43.022;25.100;2024-01-15T08:30:56;;;;3.20
70969;BMP280;58630;43.022;25.100;2024-01-15T08:33:21;;;;3.20
70969;BMP280;58630;43.022;25.100;2024-01-15T08:35:47;;;;3.20
70969;BMP280;58630;43.022;25.100;2024-01-15T08:38:13;;;;3.20
70969;BMP280;58630;43.022;25.100;2024-01-15T08:40:38;;;;3.30
70969;BMP280;58630;43.022;25.100;2024-01-15T08:43:04;;;;3.30
70969;BMP280;58630;43.022;25.100;2024-01-15T08:45:32;;;;3.30
70969;BMP280;58630;43.022;25.100;2024-01-15T08:47:57;;;;3.30
70969;BMP280;58630;43.022;25.100;2024-01-15T08:50:23;;;;3.30
70969;BMP280;58630;43.022;25.100;2024-01-15T08:52:48;;;;3.30
70969;BMP280;58630;43.022;25.100;2024-01-15T08:55:14;;;;3.30
70969;BMP280;58630;43.022;25.100;2024-01-15T08:57:39;;;;3.40
70969;BMP280;58630;43.022;25.100;2024-01-15T09:00:05;;;;3.30
70969;BMP280;58630;43.022;25.100;2024-01-15T09:02:34;;;;3.40
70969;BMP280;58630;43.022;25.100;2024-01-15T09:04:59;;;;3.40
70969;BMP280;58630;43.022;25.100;2024-01-15T09:07:25;;;;3.40
70969;BMP280;58630;43.022;25.100;2024-01-15T09:09:52;;;;3.40
70969;BMP280;58630;43.022;25.100;2024-01-15T09:12:17;;;;3.40
70969;BMP280;58630;43.022;25.100;2024-01-15T09:14:44;;;;3.40
70969;BMP280;58630;43.022;25.100;2024-01-15T09:17:09;;;;3.40
70969;BMP280;58630;43.022;25.100;2024-01-15T09:19:35;;;;3.50
70969;BMP280;58630;43.022;25.100;2024-01-15T09:22:00;;;;3.50
70969;BMP280;58630;43.022;25.100;2024-01-15T09:24:26;;;;3.50
70969;BMP280;58630;43.022;25.100;2024-01-15T09:26:51;;;;3.50
70969;BMP280;58630;43.022;25.100;2024-01-15T09:29:17;;;;3.50
70969;BMP280;58630;43.022;25.100;2024-01-15T09:31:43;;;;3.50
70969;BMP280;58630;43.022;25.100;2024-01-15T09:34:09;;;;3.50
70969;BMP280;58630;43.022;25.100;2024-01-15T09:36:40;;;;3.50
70969;BMP280;58630;43.022;25.100;2024-01-15T09:39:08;;;;3.60
70969;BMP280;58630;43.022;25.100;2024-01-15T09:41:37;;;;3.60
70969;BMP280;58630;43.022;25.100;2024-01-15T09:44:03;;;;3.60
70969;BMP280;58630;43.022;25.100;2024-01-15T09:46:28;;;;3.60
70969;BMP280;58630;43.022;25.100;2024-01-15T09:48:54;;;;3.60
70969;BMP280;58630;43.022;25.100;2024-01-15T09:51:20;;;;3.60
70969;BMP280;58630;43.022;25.100;2024-01-15T09:53:46;;;;3.60
70969;BMP280;58630;43.022;25.100;2024-01-15T09:56:12;;;;3.60
70969;BMP280;58630;43.022;25.100;2024-01-15T09:58:38;;;;3.60
70969;BMP280;58630;43.022;25.100;2024-01-15T10:01:04;;;;3.70
70969;BMP280;58630;43.022;25.100;2024-01-15T10:03:29;;;;3.70
70969;BMP280;58630;43.022;25.100;2024-01-15T10:05:57;;;;3.70
70969;BMP280;58630;43.022;25.100;2024-01-15T10:08:24;;;;3.70
70969;BMP280;58630;43.022;25.100;2024-01-15T10:10:50;;;;3.70
70969;BMP280;58630;43.022;25.100;2024-01-15T10:13:16;;;;3.70
70969;BMP280;58630;43.022;25.100;2024-01-15T10:15:44;;;;3.70
70969;BMP280;58630;43.022;25.100;2024-01-15T10:18:12;;;;3.70
70969;BMP280;58630;43.022;25.100;2024-01-15T10:20:37;;;;3.70
70969;BMP280;58630;43.022;25.100;2024-01-15T10:23:03;;;;3.80
70969;BMP280;58630;43.022;25.100;2024-01-15T10:25:29;;;;3.80
70969;BMP280;58630;43.022;25.100;2024-01-15T10:28:14;;;;3.80
70969;BMP280;58630;43.022;25.100;2024-01-15T10:30:39;;;;3.80
70969;BMP280;58630;43.022;25.100;2024-01-15T10:33:05;;;;3.80
70969;BMP280;58630;43.022;25.100;2024-01-15T10:35:31;;;;3.80
70969;BMP280;58630;43.022;25.100;2024-01-15T10:37:57;;;;3.80
70969;BMP280;58630;43.022;25.100;2024-01-15T10:40:23;;;;3.80
70969;BMP280;58630;43.022;25.100;2024-01-15T10:42:48;;;;3.90
70969;BMP280;58630;43.022;25.100;2024-01-15T10:45:14;;;;3.80
70969;BMP280;58630;43.022;25.100;2024-01-15T10:47:43;;;;3.90
70969;BMP280;58630;43.022;25.100;2024-01-15T10:50:09;;;;3.90
70969;BMP280;58630;43.022;25.100;2024-01-15T10:52:36;;;;3.90
70969;BMP280;58630;43.022;25.100;2024-01-15T10:55:02;;;;3.90
70969;BMP280;58630;43.022;25.100;2024-01-15T10:57:28;;;;3.90
70969;BMP280;58630;43.022;25.100;2024-01-15T10:59:54;;;;3.90
70969;BMP280;58630;43.022;25.100;2024-01-15T11:02:20;;;;3.90
70969;BMP280;58630;43.022;25.100;2024-01-15T11:04:46;;;;3.90
70969;BMP280;58630;43.022;25.100;2024-01-15T11:07:11;;;;4.00
70969;BMP280;58630;43.022;25.100;2024-01-15T11:09:38;;;;4.00
70969;BMP280;58630;43.022;25.100;2024-01-15T11:12:08;;;;4.00
70969;BMP280;58630;43.022;25.100;2024-01-15T11:14:41;;;;4.00
70969;BMP280;58630;43.022;25.100;2024-01-15T11:17:09;;;;4.00
70969;BMP280;58630;43.022;25.100;2024-01-15T11:19:42;;;;4.00
70969;BMP280;58630;43.022;25.100;2024-01-15T11:22:08;;;;4.00
70969;BMP280;58630;43.022;25.100;2024-01-15T11:24:38;;;;4.10
70969;BMP280;58630;43.022;25.100;2024-01-15T11:27:04;;;;4.10
70969;BMP280;58630;43.022;25.100;2024-01-15T11:29:31;;;;4.10
70969;BMP280;58630;43.022;25.100;2024-01-15T11:32:01;;;;4.10
70969;BMP280;58630;43.022;25.100;2024-01-15T11:40:20;;;;4.20
70969;BMP280;58630;43.022;25.100;2024-01-15T11:42:46;;;;4.30
70969;BMP280;58630;43.022;25.100;2024-01-15T11:45:19;;;;4.50
70969;BMP280;58630;43.022;25.100;2024-01-15T11:50:29;;;;4.50
70969;BMP280;58630;43.022;25.100;2024-01-15T11:53:05;;;;4.50
70969;BMP280;58630;43.022;25.100;2024-01-15T11:55:36;;;;4.60
70969;BMP280;58630;43.022;25.100;2024-01-15T11:58:04;;;;4.80
70969;BMP280;58630;43.022;25.100;2024-01-15T12:00:33;;;;4.90
70969;BMP280;58630;43.022;25.100;2024-01-15T12:02:58;;;;5.20
70969;BMP280;58630;43.022;25.100;2024-01-15T12:05:24;;;;5.40
70969;BMP280;58630;43.022;25.100;2024-01-15T12:07:50;;;;5.50
70969;BMP280;58630;43.022;25.100;2024-01-15T12:10:19;;;;5.70
70969;BMP280;58630;43.022;25.100;2024-01-15T12:13:02;;;;5.80
70969;BMP280;58630;43.022;25.100;2024-01-15T12:15:30;;;;5.90
70969;BMP280;58630;43.022;25.100;2024-01-15T12:17:55;;;;6.00
70969;BMP280;58630;43.022;25.100;2024-01-15T12:20:23;;;;6.00
70969;BMP280;58630;43.022;25.100;2024-01-15T12:22:49;;;;6.10
70969;BMP280;58630;43.022;25.100;2024-01-15T12:25:14;;;;6.00
70969;BMP280;58630;43.022;25.100;2024-01-15T12:27:40;;;;6.10
70969;BMP280;58630;43.022;25.100;2024-01-15T12:30:06;;;;6.00
70969;BMP280;58630;43.022;25.100;2024-01-15T12:32:32;;;;6.00
70969;BMP280;58630;43.022;25.100;2024-01-15T12:35:00;;;;6.00
70969;BMP280;58630;43.022;25.100;2024-01-15T12:37:25;;;;5.90
70969;BMP280;58630;43.022;25.100;2024-01-15T12:39:51;;;;5.90
70969;BMP280;58630;43.022;25.100;2024-01-15T12:42:17;;;;6.00
70969;BMP280;58630;43.022;25.100;2024-01-15T12:44:44;;;;6.10
70969;BMP280;58630;43.022;25.100;2024-01-15T12:47:10;;;;6.30
70969;BMP280;58630;43.022;25.100;2024-01-15T12:49:38;;;;6.30
70969;BMP280;58630;43.022;25.100;2024-01-15T12:52:08;;;;6.30
70969;BMP280;58630;43.022;25.100;2024-01-15T12:54:34;;;;6.30
70969;BMP280;58630;43.022;25.100;2024-01-15T12:56:59;;;;6.30
70969;BMP280;58630;43.022;25.100;2024-01-15T12:59:25;;;;6.50
70969;BMP280;58630;43.022;25.100;2024-01-15T13:01:50;;;;6.60
70969;BMP280;58630;43.022;25.100;2024-01-15T13:04:22;;;;6.60
70969;BMP280;58630;43.022;25.100;2024-01-15T13:06:49;;;;6.60
70969;BMP280;58630;43.022;25.100;2024-01-15T13:09:14;;;;6.50
70969;BMP280;58630;43.022;25.100;2024-01-15T13:11:40;;;;6.40
70969;BMP280;58630;43.022;25.100;2024-01-15T13:14:05;;;;6.40
70969;BMP280;58630;43.022;25.100;2024-01-15T13:16:31;;;;6.50
70969;BMP280;58630;43.022;25.100;2024-01-15T13:18:57;;;;6.40
70969;BMP280;58630;43.022;25.100;2024-01-15T13:21:24;;;;6.50
70969;BMP280;58630;43.022;25.100;2024-01-15T13:23:49;;;;6.90
70969;BMP280;58630;43.022;25.100;2024-01-15T13:26:15;;;;7.30
70969;BMP280;58630;43.022;25.100;2024-01-15T13:28:40;;;;7.60
70969;BMP280;58630;43.022;25.100;2024-01-15T13:31:06;;;;7.80
70969;BMP280;58630;43.022;25.100;2024-01-15T13:33:32;;;;7.90
70969;BMP280;58630;43.022;25.100;2024-01-15T13:35:57;;;;7.80
70969;BMP280;58630;43.022;25.100;2024-01-15T13:38:23;;;;7.60
70969;BMP280;58630;43.022;25.100;2024-01-15T13:40:49;;;;7.40
70969;BMP280;58630;43.022;25.100;2024-01-15T13:43:15;;;;7.30
70969;BMP280;58630;43.022;25.100;2024-01-15T13:45:43;;;;7.20
70969;BMP280;58630;43.022;25.100;2024-01-15T13:48:09;;;;7.10
70969;BMP280;58630;43.022;25.100;2024-01-15T13:50:35;;;;7.10
70969;BMP280;58630;43.022;25.100;2024-01-15T13:53:01;;;;7.00
70969;BMP280;58630;43.022;25.100;2024-01-15T13:55:27;;;;6.90
70969;BMP280;58630;43.022;25.100;2024-01-15T13:57:54;;;;6.90
70969;BMP280;58630;43.022;25.100;2024-01-15T14:00:19;;;;6.80
70969;BMP280;58630;43.022;25.100;2024-01-15T14:02:45;;;;6.80
70969;BMP280;58630;43.022;25.100;2024-01-15T14:05:11;;;;6.70
70969;BMP280;58630;43.022;25.100;2024-01-15T14:07:38;;;;6.70
70969;BMP280;58630;43.022;25.100;2024-01-15T14:10:04;;;;6.60
70969;BMP280;58630;43.022;25.100;2024-01-15T14:12:30;;;;6.60
70969;BMP280;58630;43.022;25.100;2024-01-15T14:14:56;;;;6.50
70969;BMP280;58630;43.022;25.100;2024-01-15T14:17:21;;;;6.50
70969;BMP280;58630;43.022;25.100;2024-01-15T14:19:47;;;;6.50
70969;BMP280;58630;43.022;25.100;2024-01-15T14:22:12;;;;6.50
70969;BMP280;58630;43.022;25.100;2024-01-15T14:24:38;;;;6.40
70969;BMP280;58630;43.022;25.100;2024-01-15T14:27:03;;;;6.50
70969;BMP280;58630;43.022;25.100;2024-01-15T14:29:30;;;;6.40
70969;BMP280;58630;43.022;25.100;2024-01-15T14:31:56;;;;6.40
70969;BMP280;58630;43.022;25.100;2024-01-15T14:34:21;;;;6.40
70969;BMP280;58630;43.022;25.100;2024-01-15T14:36:50;;;;6.40
70969;BMP280;58630;43.022;25.100;2024-01-15T14:39:15;;;;6.40
70969;BMP280;58630;43.022;25.100;2024-01-15T14:41:41;;;;6.40
70969;BMP280;58630;43.022;25.100;2024-01-15T14:44:07;;;;6.40
70969;BMP280;58630;43.022;25.100;2024-01-15T14:46:33;;;;6.40
70969;BMP280;58630;43.022;25.100;2024-01-15T14:48:58;;;;6.40
70969;BMP280;58630;43.022;25.100;2024-01-15T14:51:24;;;;6.40
70969;BMP280;58630;43.022;25.100;2024-01-15T14:53:49;;;;6.40
70969;BMP280;58630;43.022;25.100;2024-01-15T14:56:15;;;;6.40
70969;BMP280;58630;43.022;25.100;2024-01-15T14:58:40;;;;6.40
70969;BMP280;58630;43.022;25.100;2024-01-15T15:01:06;;;;6.40
70969;BMP280;58630;43.022;25.100;2024-01-15T15:03:31;;;;6.40
70969;BMP280;58630;43.022;25.100;2024-01-15T15:05:58;;;;6.40
70969;BMP280;58630;43.022;25.100;2024-01-15T15:08:24;;;;6.40
70969;BMP280;58630;43.022;25.100;2024-01-15T15:10:49;;;;6.40
70969;BMP280;58630;43.022;25.100;2024-01-15T15:13:15;;;;6.40
70969;BMP280;58630;43.022;25.100;2024-01-15T15:15:41;;;;6.40
70969;BMP280;58630;43.022;25.100;2024-01-15T15:18:06;;;;6.40
70969;BMP280;58630;43.022;25.100;2024-01-15T15:20:32;;;;6.40
70969;BMP280;58630;43.022;25.100;2024-01-15T15:22:57;;;;6.40
70969;BMP280;58630;43.022;25.100;2024-01-15T15:25:23;;;;6.40
70969;BMP280;58630;43.022;25.100;2024-01-15T15:27:48;;;;6.40
70969;BMP280;58630;43.022;25.100;2024-01-15T15:30:14;;;;6.30
70969;BMP280;58630;43.022;25.100;2024-01-15T15:32:39;;;;6.40
70969;BMP280;58630;43.022;25.100;2024-01-15T15:35:05;;;;6.40
70969;BMP280;58630;43.022;25.100;2024-01-15T15:37:31;;;;6.30
70969;BMP280;58630;43.022;25.100;2024-01-15T15:39:57;;;;6.40
70969;BMP280;58630;43.022;25.100;2024-01-15T15:42:24;;;;6.30
70969;BMP280;58630;43.022;25.100;2024-01-15T15:44:50;;;;6.30
70969;BMP280;58630;43.022;25.100;2024-01-15T15:47:16;;;;6.30
70969;BMP280;58630;43.022;25.100;2024-01-15T15:49:42;;;;6.30
70969;BMP280;58630;43.022;25.100;2024-01-15T15:52:08;;;;6.30
70969;BMP280;58630;43.022;25.100;2024-01-15T15:54:34;;;;6.30
70969;BMP280;58630;43.022;25.100;2024-01-15T15:56:59;;;;6.30
70969;BMP280;58630;43.022;25.100;2024-01-15T15:59:25;;;;6.30
70969;BMP280;58630;43.022;25.100;2024-01-15T16:01:50;;;;6.30
70969;BMP280;58630;43.022;25.100;2024-01-15T16:04:16;;;;6.30
70969;BMP280;58630;43.022;25.100;2024-01-15T16:06:43;;;;6.30